Time;durP1;ratioP1;P1;durP2;ratioP2;P2;SDS_P1;SDS_P2;PMS_P1;PMS_P2;Temp;Humidity;BMP_temperature;BMP_pressure;BME280_temperature;BME280_humidity;BME280_pressure;Samples;Min_cycle;Max_cycle;Signal;HPM_P1;HPM_P2
2022/12/26 00:01:00;;;;;;;24.48;13.02;;;8.40;99.90;;;;;;5096764;28;20055;-65
2022/12/26 00:03:29;;;;;;;25.50;14.10;;;8.40;99.90;;;;;;5097434;28;20112;-65
2022/12/26 00:05:57;;;;;;;24.35;13.32;;;8.30;99.90;;;;;;5096254;28;20036;-65
2022/12/26 00:08:24;;;;;;;30.35;15.50;;;8.30;99.90;;;;;;5115796;27;20055;-65
2022/12/26 00:10:51;;;;;;;27.00;14.75;;;8.40;99.90;;;;;;5096913;28;20044;-65
2022/12/26 00:13:18;;;;;;;25.40;13.50;;;8.40;99.90;;;;;;5096500;28;20059;-65
2022/12/26 00:15:45;;;;;;;27.02;14.63;;;8.30;99.90;;;;;;5097116;28;20093;-65
2022/12/26 00:18:12;;;;;;;30.55;15.30;;;8.30;99.90;;;;;;5114668;27;20110;-65
2022/12/26 00:20:39;;;;;;;30.08;15.13;;;8.30;99.90;;;;;;5133884;27;21367;-65
2022/12/26 00:23:07;;;;;;;35.03;16.23;;;8.40;99.90;;;;;;5114790;27;20047;-65
2022/12/26 00:25:34;;;;;;;30.27;15.65;;;8.40;99.90;;;;;;5115676;27;20483;-65
2022/12/26 00:28:01;;;;;;;32.25;14.68;;;8.30;99.90;;;;;;5114722;27;20043;-65
2022/12/26 00:30:28;;;;;;;32.22;14.55;;;8.40;99.90;;;;;;5096971;28;20460;-65
2022/12/26 00:32:55;;;;;;;31.83;15.35;;;8.40;99.90;;;;;;5096703;28;20063;-65
2022/12/26 00:35:22;;;;;;;29.63;13.75;;;8.30;99.90;;;;;;5096153;28;20040;-64
2022/12/26 00:37:49;;;;;;;28.88;14.48;;;8.40;99.90;;;;;;5096762;28;20047;-64
2022/12/26 00:40:17;;;;;;;31.67;14.80;;;8.30;99.90;;;;;;5096369;27;20051;-64
2022/12/26 00:42:44;;;;;;;28.70;13.90;;;8.40;99.90;;;;;;5114380;27;20043;-64
2022/12/26 00:45:11;;;;;;;27.30;13.60;;;8.30;99.90;;;;;;5095896;27;20052;-64
2022/12/26 00:47:38;;;;;;;29.98;15.45;;;8.40;99.90;;;;;;5096625;28;20047;-64
2022/12/26 00:50:06;;;;;;;31.10;14.88;;;8.40;99.90;;;;;;5095957;27;20123;-64
2022/12/26 00:52:33;;;;;;;31.85;14.50;;;8.30;99.90;;;;;;5096559;28;20059;-65
2022/12/26 00:54:59;;;;;;;31.13;15.93;;;8.40;99.90;;;;;;5112463;27;20047;-64
2022/12/26 00:57:28;;;;;;;36.65;16.45;;;8.40;99.90;;;;;;5114345;27;20043;-64
2022/12/26 00:59:55;;;;;;;33.83;16.88;;;8.40;99.90;;;;;;5114722;27;20048;-64
2022/12/26 01:05:02;;;;;;;;;;;8.40;99.90;;;;;;5109132;27;20376;-65
2022/12/26 01:07:29;;;;;;;33.03;15.05;;;8.40;99.90;;;;;;5133844;27;19926;-65
2022/12/26 01:09:56;;;;;;;30.77;15.57;;;8.30;99.90;;;;;;5113751;27;20491;-65
2022/12/26 01:12:23;;;;;;;32.50;16.45;;;8.40;99.90;;;;;;5095800;27;20527;-65
2022/12/26 01:14:51;;;;;;;40.40;16.70;;;8.30;99.90;;;;;;5095988;28;20591;-65
2022/12/26 01:17:18;;;;;;;36.38;16.00;;;8.40;99.90;;;;;;5113812;27;20126;-65
2022/12/26 01:19:45;;;;;;;37.53;16.73;;;8.30;99.90;;;;;;5095959;28;20074;-65
2022/12/26 01:22:11;;;;;;;40.25;17.00;;;8.30;99.90;;;;;;5095852;27;20047;-65
2022/12/26 01:24:39;;;;;;;39.83;17.88;;;8.40;99.90;;;;;;5094685;28;20073;-64
2022/12/26 01:27:06;;;;;;;36.72;17.02;;;8.40;99.90;;;;;;5114213;27;20058;-66
2022/12/26 01:29:33;;;;;;;37.30;17.13;;;8.40;99.90;;;;;;5095483;27;20475;-65
2022/12/26 01:32:01;;;;;;;32.50;16.27;;;8.40;99.90;;;;;;5113323;27;20054;-65
2022/12/26 01:34:28;;;;;;;38.40;16.27;;;8.40;99.90;;;;;;5095447;28;20051;-66
2022/12/26 01:36:55;;;;;;;32.78;15.80;;;8.30;99.90;;;;;;5095368;28;20040;-66
2022/12/26 01:39:22;;;;;;;35.45;16.95;;;8.40;99.90;;;;;;5094982;28;20106;-66
2022/12/26 01:41:49;;;;;;;40.45;18.60;;;8.40;99.90;;;;;;5095192;28;20044;-65
2022/12/26 01:44:53;;;;;;;33.45;16.20;;;8.30;99.90;;;;;;5094942;28;20505;-65
2022/12/26 01:47:25;;;;;;;31.55;16.10;;;8.30;99.90;;;;;;5106741;27;20551;-67
2022/12/26 01:49:54;;;;;;;39.40;17.27;;;8.30;99.90;;;;;;5095522;27;20467;-66
2022/12/26 01:52:28;;;;;;;39.90;16.92;;;8.30;99.90;;;;;;5094559;27;20052;-66
2022/12/26 01:54:55;;;;;;;41.33;17.50;;;8.40;99.90;;;;;;5094846;28;20112;-66
2022/12/26 01:57:27;;;;;;;40.00;17.02;;;8.40;99.90;;;;;;5095023;28;20051;-66
2022/12/26 01:59:56;;;;;;;39.55;17.50;;;8.40;99.90;;;;;;5112871;27;20108;-65
2022/12/26 02:02:27;;;;;;;40.17;17.15;;;8.30;99.90;;;;;;5095351;28;20399;-65
2022/12/26 02:07:44;;;;;;;36.95;16.73;;;8.40;99.90;;;;;;5094993;28;20128;-67
2022/12/26 02:10:15;;;;;;;36.22;16.65;;;8.30;99.90;;;;;;5113375;28;20453;-67
2022/12/26 02:12:42;;;;;;;32.53;16.20;;;8.30;99.90;;;;;;5094344;28;20105;-66
2022/12/26 02:15:12;;;;;;;34.63;15.90;;;8.30;99.90;;;;;;5094556;28;20055;-66
2022/12/26 02:17:40;;;;;;;38.40;17.15;;;8.30;99.90;;;;;;5113185;28;20513;-65
2022/12/26 02:20:18;;;;;;;34.08;14.18;;;8.30;99.90;;;;;;5112720;27;20047;-63
2022/12/26 02:23:33;;;;;;;35.25;14.80;;;8.30;99.90;;;;;;5094810;28;20043;-64
2022/12/26 02:26:42;;;;;;;27.63;13.32;;;8.30;99.90;;;;;;5108055;28;20044;-64
2022/12/26 02:29:41;;;;;;;32.22;13.18;;;8.30;99.90;;;;;;5132400;27;20039;-64
2022/12/26 02:32:19;;;;;;;31.63;14.63;;;8.30;99.90;;;;;;5113315;27;20059;-65
2022/12/26 02:34:55;;;;;;;29.60;13.98;;;8.30;99.90;;;;;;5112876;27;20047;-65
2022/12/26 02:37:38;;;;;;;27.58;13.85;;;8.30;99.90;;;;;;5096615;28;20491;-66
2022/12/26 02:40:23;;;;;;;30.05;13.15;;;8.30;99.90;;;;;;5112447;27;20400;-66
2022/12/26 02:42:57;;;;;;;34.45;14.80;;;8.30;99.90;;;;;;5109691;27;20054;-66
2022/12/26 02:48:32;;;;;;;26.27;13.68;;;8.30;99.90;;;;;;5073478;28;20048;-66
2022/12/26 03:13:50;;;;;;;25.45;14.45;;;8.40;99.90;;;;;;5116335;27;20043;-66
2022/12/26 03:19:07;;;;;;;30.33;16.33;;;8.40;99.90;;;;;;5098286;27;20047;-65
2022/12/26 03:21:40;;;;;;;24.80;15.27;;;8.50;99.90;;;;;;5098481;27;20560;-65
2022/12/26 03:24:10;;;;;;;31.52;16.83;;;8.40;99.90;;;;;;5097519;28;20130;-65
2022/12/26 03:26:46;;;;;;;26.67;16.63;;;8.50;99.90;;;;;;5134092;27;20047;-64
2022/12/26 03:32:05;;;;;;;29.08;17.48;;;8.50;99.90;;;;;;5135229;27;20084;-65
2022/12/26 03:34:31;;;;;;;27.52;16.98;;;8.50;99.90;;;;;;5116730;27;20448;-64
2022/12/26 03:37:27;;;;;;;30.77;17.73;;;8.50;99.90;;;;;;5115183;27;20040;-65
2022/12/26 04:20:00;;;;;;;28.70;17.95;;;8.70;99.90;;;;;;5134011;27;20193;-65
2022/12/26 04:45:07;;;;;;;28.63;15.80;;;8.70;99.90;;;;;;5115556;27;20042;-65
2022/12/26 04:47:34;;;;;;;26.50;15.70;;;8.70;99.90;;;;;;5133748;27;20043;-64
2022/12/26 04:50:13;;;;;;;27.30;16.35;;;8.70;99.90;;;;;;5134461;27;20459;-64
2022/12/26 04:52:58;;;;;;;28.67;15.85;;;8.70;99.90;;;;;;5121546;27;20518;-64
2022/12/26 04:55:26;;;;;;;26.58;16.35;;;8.80;99.90;;;;;;5133713;27;20079;-63
2022/12/26 04:57:53;;;;;;;24.17;15.65;;;8.80;99.90;;;;;;5115444;27;20513;-64
2022/12/26 05:00:23;;;;;;;26.30;17.70;;;8.80;99.90;;;;;;5134274;27;20050;-65
2022/12/26 05:11:10;;;;;;;30.08;17.92;;;8.70;99.90;;;;;;5113344;27;20047;-64
2022/12/26 05:13:38;;;;;;;27.38;16.75;;;8.80;99.90;;;;;;5114402;27;20115;-64
2022/12/26 05:30:05;;;;;;;24.00;15.85;;;8.70;99.90;;;;;;5052143;28;20059;-65
2022/12/26 05:35:18;;;;;;;24.58;16.75;;;8.70;99.90;;;;;;5053486;28;20078;-63
2022/12/26 05:37:45;;;;;;;23.85;15.27;;;8.70;99.90;;;;;;5069540;28;20048;-64
2022/12/26 05:40:12;;;;;;;24.60;14.90;;;8.70;99.90;;;;;;5069696;28;20533;-64
2022/12/26 05:42:39;;;;;;;24.40;14.43;;;8.60;99.90;;;;;;5109054;27;20051;-64
2022/12/26 05:45:07;;;;;;;26.88;16.83;;;8.60;99.90;;;;;;5113689;27;20062;-64
2022/12/26 05:47:35;;;;;;;30.73;16.67;;;8.60;99.90;;;;;;5133121;27;20545;-64
2022/12/26 05:50:02;;;;;;;25.40;15.50;;;8.60;99.90;;;;;;5113678;27;20052;-64
2022/12/26 05:52:29;;;;;;;24.10;15.23;;;8.60;99.90;;;;;;5113146;27;20510;-64
2022/12/26 05:54:56;;;;;;;24.20;15.63;;;8.60;99.90;;;;;;5097028;28;20051;-64
2022/12/26 05:57:22;;;;;;;28.67;15.80;;;8.70;99.90;;;;;;5094736;28;20051;-64
2022/12/26 05:59:49;;;;;;;26.88;16.95;;;8.60;99.90;;;;;;5113799;28;20055;-63
2022/12/26 06:02:16;;;;;;;24.15;15.52;;;8.60;99.90;;;;;;5113737;28;20044;-63
2022/12/26 06:04:45;;;;;;;23.33;14.65;;;8.60;99.90;;;;;;5112805;27;20882;-64
2022/12/26 06:07:11;;;;;;;23.92;16.55;;;8.60;99.90;;;;;;5113372;28;20495;-65
2022/12/26 06:09:38;;;;;;;26.65;16.30;;;8.60;99.90;;;;;;5113508;27;20089;-65
2022/12/26 06:12:06;;;;;;;25.40;17.25;;;8.60;99.90;;;;;;5105849;27;20055;-64
2022/12/26 06:14:33;;;;;;;26.65;16.98;;;8.60;99.90;;;;;;5118386;27;20055;-65
2022/12/26 06:16:59;;;;;;;21.70;15.07;;;8.60;99.90;;;;;;5113373;27;20047;-65
2022/12/26 06:19:26;;;;;;;25.83;16.63;;;8.60;99.90;;;;;;5112701;28;20411;-65
2022/12/26 06:21:54;;;;;;;23.95;15.93;;;8.60;99.90;;;;;;5095122;28;20051;-65
2022/12/26 06:24:21;;;;;;;26.55;15.85;;;8.70;99.90;;;;;;5111958;27;20051;-65
2022/12/26 06:26:49;;;;;;;23.83;15.43;;;8.60;99.90;;;;;;5131818;27;20474;-64
2022/12/26 06:29:16;;;;;;;22.00;14.70;;;8.70;99.90;;;;;;5112244;28;20551;-65
2022/12/26 06:31:43;;;;;;;24.70;15.27;;;8.70;99.90;;;;;;5132517;27;20047;-64
2022/12/26 06:34:11;;;;;;;21.75;14.90;;;8.70;99.90;;;;;;5131730;27;20046;-63
2022/12/26 06:36:38;;;;;;;22.88;15.80;;;8.70;99.90;;;;;;5113085;28;20043;-64
2022/12/26 06:39:06;;;;;;;25.02;14.07;;;8.70;99.90;;;;;;5094405;28;20051;-64
2022/12/26 06:41:33;;;;;;;21.92;13.27;;;8.60;99.90;;;;;;5093965;28;20044;-64
2022/12/26 06:44:00;;;;;;;23.63;14.48;;;8.70;99.90;;;;;;5094482;28;20058;-63
2022/12/26 06:46:28;;;;;;;19.67;13.25;;;8.70;99.90;;;;;;5112963;28;20039;-63
2022/12/26 06:48:55;;;;;;;21.40;13.20;;;8.80;99.90;;;;;;5112341;28;20495;-63
2022/12/26 06:51:23;;;;;;;20.30;13.80;;;8.70;99.90;;;;;;5112829;28;20047;-63
2022/12/26 06:53:52;;;;;;;24.70;13.95;;;8.70;99.90;;;;;;5112188;28;20104;-63
2022/12/26 06:56:22;;;;;;;18.85;12.68;;;8.70;99.90;;;;;;5094429;28;20047;-62
2022/12/26 06:58:53;;;;;;;17.40;11.88;;;8.70;99.90;;;;;;5112773;28;20055;-64
2022/12/26 07:01:20;;;;;;;19.60;12.10;;;8.70;99.90;;;;;;5112327;28;20465;-63
2022/12/26 07:03:47;;;;;;;20.77;12.88;;;8.70;99.90;;;;;;5112473;28;20076;-63
2022/12/26 07:06:21;;;;;;;22.35;12.45;;;8.80;99.90;;;;;;5112485;28;20048;-64
2022/12/26 07:08:48;;;;;;;21.00;12.70;;;8.80;99.90;;;;;;5093882;28;20056;-64
2022/12/26 07:11:16;;;;;;;19.73;12.77;;;8.80;99.90;;;;;;5089965;28;20542;-63
2022/12/26 07:13:45;;;;;;;17.33;11.75;;;8.90;99.90;;;;;;5111191;28;20051;-63
2022/12/26 07:16:12;;;;;;;18.13;10.98;;;8.90;99.90;;;;;;5091599;28;20056;-63
2022/12/26 07:18:39;;;;;;;15.70;11.70;;;8.90;99.90;;;;;;5111603;28;20146;-64
2022/12/26 07:21:07;;;;;;;17.05;11.05;;;8.80;99.90;;;;;;5095279;28;20052;-64
2022/12/26 07:23:34;;;;;;;19.40;10.70;;;8.80;99.90;;;;;;5098645;28;20043;-63
2022/12/26 07:26:02;;;;;;;20.73;11.25;;;8.80;99.90;;;;;;5099071;28;20047;-63
2022/12/26 07:28:29;;;;;;;15.77;10.43;;;8.80;99.90;;;;;;5096939;28;20050;-63
2022/12/26 07:30:59;;;;;;;15.43;9.50;;;8.80;99.90;;;;;;5100615;28;20047;-63
2022/12/26 07:33:26;;;;;;;13.13;8.85;;;8.80;99.90;;;;;;5110766;28;20105;-63
2022/12/26 07:35:54;;;;;;;13.55;8.45;;;8.90;99.90;;;;;;5095121;28;20092;-64
2022/12/26 07:38:21;;;;;;;12.65;8.30;;;8.90;99.90;;;;;;5111249;28;20048;-64
2022/12/26 07:40:47;;;;;;;11.95;8.40;;;8.90;99.90;;;;;;5109890;28;20047;-63
2022/12/26 07:43:14;;;;;;;17.23;9.50;;;8.90;99.90;;;;;;5109649;28;20039;-65
2022/12/26 07:45:41;;;;;;;12.68;8.02;;;8.90;99.90;;;;;;5110427;28;20244;-64
2022/12/26 07:48:09;;;;;;;13.98;9.00;;;8.80;99.90;;;;;;5094757;28;20043;-64
2022/12/26 07:50:36;;;;;;;14.93;8.63;;;8.80;99.90;;;;;;5095163;28;20083;-65
2022/12/26 07:53:03;;;;;;;15.05;7.90;;;8.80;99.90;;;;;;5094903;28;20056;-64
2022/12/26 07:55:30;;;;;;;14.45;8.85;;;8.90;99.90;;;;;;5100742;28;20043;-64
2022/12/26 07:57:57;;;;;;;12.13;7.85;;;8.80;99.90;;;;;;5100101;28;20086;-64
2022/12/26 08:00:25;;;;;;;12.52;7.75;;;8.80;99.90;;;;;;5098027;27;20058;-64
2022/12/26 08:02:53;;;;;;;13.73;7.95;;;8.80;99.90;;;;;;5117252;27;20453;-63
2022/12/26 08:05:21;;;;;;;15.43;8.25;;;8.80;99.90;;;;;;5114429;27;20460;-63
2022/12/26 08:07:48;;;;;;;12.60;7.85;;;8.80;99.90;;;;;;5113582;27;20055;-63
2022/12/26 08:10:15;;;;;;;14.18;7.95;;;8.80;99.90;;;;;;5113064;27;20040;-62
2022/12/26 08:12:42;;;;;;;14.93;8.18;;;8.80;99.90;;;;;;5113206;27;20089;-63
2022/12/26 08:15:12;;;;;;;14.20;7.85;;;8.80;99.90;;;;;;5113985;27;20047;-63
2022/12/26 08:17:39;;;;;;;12.82;7.47;;;8.90;99.90;;;;;;5099134;28;20047;-64
2022/12/26 08:20:07;;;;;;;9.43;7.30;;;8.90;99.90;;;;;;5113239;27;20054;-64
2022/12/26 08:22:35;;;;;;;11.75;6.78;;;8.90;99.90;;;;;;5101288;27;20520;-63
2022/12/26 08:25:02;;;;;;;11.30;7.18;;;9.00;99.90;;;;;;5098016;28;20051;-64
2022/12/26 08:27:29;;;;;;;12.68;7.18;;;8.90;99.90;;;;;;5098196;27;20055;-64
2022/12/26 08:29:56;;;;;;;12.93;7.38;;;9.00;99.90;;;;;;5098616;28;20059;-64
2022/12/26 08:32:23;;;;;;;10.95;6.78;;;9.00;99.90;;;;;;5096826;28;20195;-64
2022/12/26 08:34:49;;;;;;;9.63;6.22;;;9.00;99.90;;;;;;5098963;28;20058;-63
2022/12/26 08:37:16;;;;;;;11.43;5.97;;;9.00;99.90;;;;;;5098953;28;20052;-63
2022/12/26 08:39:45;;;;;;;14.85;6.43;;;9.10;99.90;;;;;;5112991;27;20051;-64
2022/12/26 08:42:12;;;;;;;13.38;6.65;;;9.10;99.90;;;;;;5113158;27;20506;-64
2022/12/26 08:44:38;;;;;;;10.07;7.07;;;9.10;99.90;;;;;;5112830;27;20056;-64
2022/12/26 08:47:05;;;;;;;14.07;5.95;;;9.10;99.90;;;;;;5112699;27;20096;-64
2022/12/26 08:49:32;;;;;;;14.80;6.00;;;9.10;99.90;;;;;;5113193;27;20044;-63
2022/12/26 08:51:59;;;;;;;9.30;5.82;;;9.10;99.90;;;;;;5113406;27;20044;-63
2022/12/26 08:54:26;;;;;;;9.38;5.82;;;9.10;99.90;;;;;;5100448;27;20059;-63
2022/12/26 08:56:54;;;;;;;10.30;5.63;;;9.10;99.90;;;;;;5097379;28;20131;-63
2022/12/26 08:59:21;;;;;;;10.65;5.95;;;9.00;99.90;;;;;;5112774;27;20453;-64
2022/12/26 09:01:48;;;;;;;15.63;6.38;;;9.00;99.90;;;;;;5112059;27;20047;-63
2022/12/26 09:04:15;;;;;;;11.63;6.40;;;9.00;99.90;;;;;;5100278;28;20383;-63
2022/12/26 09:06:42;;;;;;;14.40;6.40;;;8.90;99.90;;;;;;5097441;28;20047;-62
2022/12/26 09:09:11;;;;;;;14.55;6.72;;;8.90;99.90;;;;;;5100010;28;20108;-63
2022/12/26 09:11:39;;;;;;;13.02;6.82;;;8.80;99.90;;;;;;5099074;28;20066;-64
2022/12/26 09:14:07;;;;;;;14.50;7.72;;;8.80;99.90;;;;;;5098948;27;20848;-63
2022/12/26 09:16:41;;;;;;;12.63;6.85;;;8.80;99.90;;;;;;5096937;28;20047;-63
2022/12/26 09:19:10;;;;;;;12.25;6.80;;;8.80;99.90;;;;;;5113339;28;20052;-64
2022/12/26 09:21:38;;;;;;;9.45;6.20;;;8.70;99.90;;;;;;5100405;27;20081;-63
2022/12/26 09:24:06;;;;;;;11.50;6.88;;;8.80;99.90;;;;;;5112042;27;20040;-64
2022/12/26 09:26:34;;;;;;;8.25;6.13;;;8.70;99.90;;;;;;5098456;28;20548;-64
2022/12/26 09:29:01;;;;;;;10.45;6.20;;;8.80;99.90;;;;;;5098287;28;20468;-64
2022/12/26 09:31:32;;;;;;;9.82;5.78;;;8.80;99.90;;;;;;5119611;27;20047;-64
2022/12/26 09:34:01;;;;;;;9.85;6.88;;;8.80;99.90;;;;;;5098812;28;20044;-64
2022/12/26 09:36:30;;;;;;;11.43;6.80;;;8.70;99.90;;;;;;5111538;27;20044;-64
2022/12/26 09:38:58;;;;;;;10.55;5.25;;;8.70;99.90;;;;;;5094847;28;20096;-65
2022/12/26 09:41:39;;;;;;;6.88;4.18;;;8.70;99.90;;;;;;5083574;28;20048;-63
2022/12/26 09:44:07;;;;;;;;;;;8.80;99.90;;;;;;5075690;28;20066;-62
2022/12/26 09:46:42;;;;;;;18.20;5.15;;;8.70;99.90;;;;;;5077402;28;20260;-62
2022/12/26 09:49:12;;;;;;;7.70;3.15;;;8.70;99.90;;;;;;5079983;28;20514;-64
2022/12/26 09:51:43;;;;;;;13.93;3.83;;;8.60;99.90;;;;;;5076877;28;20439;-64
2022/12/26 09:54:17;;;;;;;24.67;3.25;;;8.60;99.90;;;;;;5081934;28;20048;-65
2022/12/26 09:56:46;;;;;;;10.68;2.92;;;8.40;99.90;;;;;;5075344;28;20052;-64
2022/12/26 09:59:16;;;;;;;14.07;3.28;;;8.20;99.90;;;;;;5077662;28;20040;-65
2022/12/26 10:01:47;;;;;;;9.43;3.33;;;8.10;99.90;;;;;;5080074;28;20049;-64
2022/12/26 10:04:22;;;;;;;7.25;2.72;;;8.10;99.90;;;;;;5080389;28;20079;-64
2022/12/26 10:06:56;;;;;;;7.38;2.63;;;8.20;99.90;;;;;;5077294;28;20051;-65
2022/12/26 10:09:50;;;;;;;13.07;2.75;;;8.40;99.90;;;;;;5073933;28;20056;-65
2022/12/26 10:12:30;;;;;;;13.18;3.05;;;8.40;99.90;;;;;;5075945;28;20549;-64
2022/12/26 10:15:03;;;;;;;11.00;2.80;;;8.10;99.90;;;;;;5078216;28;20488;-63
2022/12/26 10:17:37;;;;;;;12.40;2.63;;;8.10;99.90;;;;;;5078086;28;20471;-64
2022/12/26 10:20:19;;;;;;;9.05;2.95;;;8.10;99.90;;;;;;5075932;28;20056;-65
2022/12/26 10:23:13;;;;;;;7.35;2.58;;;8.50;99.90;;;;;;5076932;28;20078;-66
2022/12/26 10:25:45;;;;;;;7.80;2.33;;;8.90;99.90;;;;;;5082219;28;20087;-65
2022/12/26 10:28:18;;;;;;;14.60;3.95;;;9.00;99.90;;;;;;5075153;28;20040;-64
2022/12/26 10:30:46;;;;;;;9.25;3.13;;;8.70;99.90;;;;;;5079232;28;20131;-64
2022/12/26 10:33:19;;;;;;;11.23;2.92;;;8.40;99.90;;;;;;5079450;28;20044;-64
2022/12/26 10:35:46;;;;;;;14.80;2.80;;;8.30;99.90;;;;;;5077211;28;20132;-64
2022/12/26 10:38:26;;;;;;;10.85;2.35;;;8.20;99.90;;;;;;5073798;28;20051;-65
2022/12/26 10:40:56;;;;;;;11.55;2.58;;;8.10;99.90;;;;;;5077866;28;20045;-65
2022/12/26 10:43:28;;;;;;;8.23;2.75;;;7.90;99.90;;;;;;5081853;28;20577;-63
2022/12/26 10:46:16;;;;;;;10.90;2.13;;;7.80;99.90;;;;;;5077516;28;20102;-64
2022/12/26 10:48:45;;;;;;;9.18;2.10;;;7.70;99.90;;;;;;5078296;28;20097;-65
2022/12/26 10:51:12;;;;;;;9.13;2.47;;;7.60;99.90;;;;;;5074866;28;20052;-64
2022/12/26 10:53:42;;;;;;;6.72;1.80;;;7.50;99.90;;;;;;5072247;28;20056;-65
2022/12/26 10:56:10;;;;;;;5.50;1.60;;;7.40;99.90;;;;;;5081218;28;20040;-65
2022/12/26 10:58:39;;;;;;;6.65;1.90;;;7.30;99.90;;;;;;5075495;28;20052;-65
2022/12/26 11:01:39;;;;;;;7.65;1.90;;;7.20;99.90;;;;;;5078905;28;20049;-65
2022/12/26 11:04:16;;;;;;;6.32;2.75;;;7.10;99.90;;;;;;5091081;28;20055;-65
2022/12/26 11:06:44;;;;;;;6.22;1.95;;;7.10;99.90;;;;;;5076686;28;20040;-66
2022/12/26 11:09:34;;;;;;;10.38;2.38;;;7.20;99.90;;;;;;5080492;28;20068;-65
2022/12/26 11:12:02;;;;;;;8.32;2.25;;;7.20;99.90;;;;;;5077153;28;20131;-64
2022/12/26 11:14:37;;;;;;;9.48;2.13;;;7.20;99.90;;;;;;5074937;28;20056;-65
2022/12/26 11:17:06;;;;;;;9.05;2.10;;;7.20;99.90;;;;;;5077970;28;20048;-64
2022/12/26 11:19:37;;;;;;;7.13;1.98;;;7.30;99.90;;;;;;5078311;28;20404;-65
2022/12/26 11:22:24;;;;;;;8.50;1.85;;;7.50;99.90;;;;;;5075181;28;20053;-64
2022/12/26 11:25:10;;;;;;;9.32;1.77;;;7.40;99.90;;;;;;5076040;28;20047;-65
2022/12/26 11:27:38;;;;;;;6.20;1.92;;;7.40;99.90;;;;;;5081748;28;20059;-64
2022/12/26 11:30:29;;;;;;;6.57;1.70;;;7.30;99.90;;;;;;5079016;28;20064;-63
2022/12/26 11:33:21;;;;;;;6.75;1.88;;;7.40;99.90;;;;;;5075698;28;20062;-65
2022/12/26 11:35:53;;;;;;;11.32;2.33;;;7.40;99.90;;;;;;5073363;28;20478;-65
2022/12/26 11:38:38;;;;;;;8.02;1.70;;;7.30;99.90;;;;;;5076005;28;20040;-64
2022/12/26 11:43:57;;;;;;;8.27;2.53;;;7.20;99.90;;;;;;5095712;27;20046;-63
2022/12/26 11:46:33;;;;;;;7.35;2.25;;;7.20;99.90;;;;;;5105544;27;20059;-63
2022/12/26 11:49:01;;;;;;;10.15;2.95;;;7.20;99.90;;;;;;5097076;28;20044;-64
2022/12/26 11:51:40;;;;;;;12.95;2.35;;;7.10;99.90;;;;;;5098588;28;20092;-65
2022/12/26 11:54:32;;;;;;;8.95;2.35;;;7.10;99.90;;;;;;5114250;27;20075;-65
2022/12/26 11:57:19;;;;;;;11.10;2.47;;;7.10;99.90;;;;;;5099016;28;20445;-64
2022/12/26 11:59:47;;;;;;;8.13;1.92;;;7.10;99.90;;;;;;5116044;27;20052;-65
2022/12/26 12:02:26;;;;;;;9.15;2.40;;;7.10;99.90;;;;;;5096509;27;20055;-65
2022/12/26 12:04:57;;;;;;;12.23;2.50;;;7.10;99.90;;;;;;5101037;27;20499;-71
2022/12/26 12:07:43;;;;;;;12.75;3.33;;;7.10;99.90;;;;;;5096380;28;20051;-66
2022/12/26 12:10:37;;;;;;;8.10;2.50;;;7.10;99.90;;;;;;5095449;27;20044;-64
2022/12/26 12:13:11;;;;;;;10.75;2.40;;;7.10;99.90;;;;;;5114401;27;20417;-65
2022/12/26 12:15:50;;;;;;;8.35;2.40;;;7.20;99.90;;;;;;5096020;28;20100;-65
2022/12/26 12:18:28;;;;;;;9.80;2.30;;;7.20;99.90;;;;;;5095089;28;20044;-64
2022/12/26 12:21:07;;;;;;;10.77;2.53;;;7.20;99.90;;;;;;5095782;28;20059;-65
2022/12/26 12:23:51;;;;;;;11.75;2.45;;;7.20;99.90;;;;;;5097964;28;20040;-64
2022/12/26 12:26:26;;;;;;;14.52;2.83;;;7.30;99.90;;;;;;5112969;27;20055;-64
2022/12/26 12:29:25;;;;;;;11.38;3.30;;;7.50;99.90;;;;;;5094882;28;20089;-65
2022/12/26 12:32:13;;;;;;;12.32;3.60;;;8.00;99.90;;;;;;5113225;27;20100;-65
2022/12/26 12:35:07;;;;;;;14.02;3.42;;;9.10;99.90;;;;;;5094502;28;20051;-65
2022/12/26 12:37:49;;;;;;;11.15;2.78;;;10.60;99.90;;;;;;5109981;27;20386;-64
2022/12/26 12:40:28;;;;;;;11.68;3.33;;;11.50;99.90;;;;;;5111750;27;20059;-65
2022/12/26 12:43:02;;;;;;;9.60;3.38;;;12.30;99.90;;;;;;5095359;28;20054;-65
2022/12/26 12:45:33;;;;;;;8.77;2.45;;;13.20;99.90;;;;;;5108695;27;20055;-65
2022/12/26 12:48:27;;;;;;;7.30;2.50;;;13.70;99.90;;;;;;5113994;28;20163;-65
2022/12/26 12:51:04;;;;;;;16.17;3.53;;;13.50;99.90;;;;;;5113503;27;20059;-65
2022/12/26 12:53:45;;;;;;;14.15;3.50;;;12.60;99.90;;;;;;5094639;28;20043;-65
2022/12/26 12:56:27;;;;;;;10.98;2.75;;;12.80;99.90;;;;;;5094056;28;20070;-65
2022/12/26 12:59:01;;;;;;;10.38;2.70;;;13.20;99.90;;;;;;5113240;28;20036;-65
2022/12/26 13:01:34;;;;;;;15.65;3.15;;;13.80;99.90;;;;;;5094524;28;20044;-66
2022/12/26 13:04:08;;;;;;;9.73;2.40;;;13.80;99.90;;;;;;5094414;28;20051;-65
2022/12/26 13:06:38;;;;;;;12.45;3.15;;;13.40;99.90;;;;;;5112998;27;20051;-65
2022/12/26 13:09:12;;;;;;;7.95;2.42;;;12.30;99.90;;;;;;5094178;28;20047;-65
2022/12/26 13:11:45;;;;;;;8.80;2.47;;;12.10;99.90;;;;;;5118425;27;20100;-65
2022/12/26 13:14:18;;;;;;;8.02;2.63;;;11.70;99.90;;;;;;5113423;27;20376;-64
2022/12/26 13:16:48;;;;;;;11.85;3.05;;;11.00;99.90;;;;;;5094353;28;20051;-64
2022/12/26 13:19:19;;;;;;;10.70;3.50;;;10.80;99.90;;;;;;5094134;27;20108;-65
2022/12/26 13:21:48;;;;;;;9.50;3.28;;;11.00;99.90;;;;;;5093880;28;20051;-65
2022/12/26 13:24:24;;;;;;;9.02;2.67;;;11.20;99.90;;;;;;5094133;28;20499;-64
2022/12/26 13:26:59;;;;;;;11.52;3.13;;;11.40;99.90;;;;;;5112359;27;20100;-65
2022/12/26 13:29:40;;;;;;;11.10;3.00;;;11.70;99.90;;;;;;5111789;27;20048;-65
2022/12/26 13:32:17;;;;;;;12.13;3.08;;;12.30;99.90;;;;;;5094415;27;20054;-65
2022/12/26 13:34:45;;;;;;;8.70;2.42;;;12.40;99.90;;;;;;5094202;28;20163;-65
2022/12/26 13:37:45;;;;;;;10.70;2.60;;;12.70;99.90;;;;;;5105480;27;20200;-65
2022/12/26 13:40:17;;;;;;;7.85;2.00;;;12.80;99.90;;;;;;5118349;27;20495;-65
2022/12/26 13:45:53;;;;;;;10.73;2.83;;;11.20;99.90;;;;;;5093459;28;20051;-65
2022/12/26 13:49:07;;;;;;;11.52;2.75;;;10.40;99.90;;;;;;5094993;28;20474;-65
2022/12/26 13:51:55;;;;;;;16.08;3.08;;;9.80;99.90;;;;;;5096588;28;20052;-66
2022/12/26 13:54:25;;;;;;;13.95;3.25;;;9.20;99.90;;;;;;5094514;27;20043;-65
2022/12/26 13:57:27;;;;;;;13.30;2.78;;;8.90;99.90;;;;;;5093184;28;20111;-66
2022/12/26 14:00:17;;;;;;;10.23;2.42;;;8.90;99.90;;;;;;5093753;28;20083;-66
2022/12/26 14:03:27;;;;;;;12.80;2.75;;;9.30;99.90;;;;;;5093834;28;20388;-66
2022/12/26 14:06:27;;;;;;;12.25;3.60;;;9.10;99.90;;;;;;5093934;28;20469;-65
2022/12/26 14:09:16;;;;;;;10.10;2.33;;;9.10;99.90;;;;;;5079507;28;20039;-66
2022/12/26 14:12:03;;;;;;;13.98;2.88;;;8.80;99.90;;;;;;5097791;28;20075;-66
2022/12/26 14:14:46;;;;;;;9.23;2.67;;;8.60;99.90;;;;;;5090516;28;20047;-64
2022/12/26 14:17:33;;;;;;;15.38;3.63;;;8.40;99.90;;;;;;5092958;28;20871;-65
2022/12/26 14:20:12;;;;;;;11.68;2.67;;;8.20;99.90;;;;;;5095358;27;20047;-64
2022/12/26 14:22:55;;;;;;;14.13;2.75;;;8.20;99.90;;;;;;5093401;28;20146;-64
2022/12/26 14:25:27;;;;;;;12.00;3.10;;;8.20;99.90;;;;;;5111419;27;20548;-65
2022/12/26 14:28:00;;;;;;;12.95;2.70;;;8.20;99.90;;;;;;5112672;28;20043;-66
2022/12/26 14:30:34;;;;;;;13.15;3.15;;;8.00;99.90;;;;;;5112745;27;20094;-65
2022/12/26 14:33:22;;;;;;;11.75;3.08;;;7.70;99.90;;;;;;5092352;28;20040;-65
2022/12/26 14:35:59;;;;;;;14.32;2.78;;;7.40;99.90;;;;;;5093860;27;20441;-65
2022/12/26 14:38:37;;;;;;;12.95;3.00;;;7.20;99.90;;;;;;5108490;27;20120;-64
2022/12/26 14:41:07;;;;;;;11.18;2.80;;;7.00;99.90;;;;;;5094495;28;20435;-63
2022/12/26 14:43:36;;;;;;;10.52;3.17;;;6.80;99.90;;;;;;5094867;28;20043;-65
2022/12/26 14:46:05;;;;;;;12.65;2.80;;;6.60;99.90;;;;;;5093690;28;20130;-65
2022/12/26 14:48:54;;;;;;;12.32;2.95;;;6.50;99.90;;;;;;5112784;28;20052;-65
2022/12/26 14:51:41;;;;;;;11.38;2.80;;;6.30;99.90;;;;;;5112818;28;20066;-65
2022/12/26 14:54:37;;;;;;;8.07;3.15;;;6.30;99.90;;;;;;5112102;28;20047;-65
2022/12/26 14:57:40;;;;;;;18.58;2.90;;;6.20;99.90;;;;;;5094390;28;20097;-65
2022/12/26 15:00:29;;;;;;;10.93;3.25;;;6.30;99.90;;;;;;5129192;28;20122;-65
2022/12/26 15:03:21;;;;;;;17.17;2.85;;;6.30;99.90;;;;;;5133203;27;20050;-64
2022/12/26 15:05:51;;;;;;;11.90;3.10;;;6.30;99.90;;;;;;5117580;27;20518;-65
2022/12/26 15:08:41;;;;;;;11.55;3.67;;;6.20;99.90;;;;;;5135712;27;20070;-65
2022/12/26 15:11:36;;;;;;;11.93;2.88;;;6.20;99.90;;;;;;5098401;28;20047;-65
2022/12/26 15:14:33;;;;;;;9.35;2.15;;;6.10;99.90;;;;;;5098062;28;20062;-65
2022/12/26 15:17:11;;;;;;;8.18;2.95;;;6.00;99.90;;;;;;5132008;27;20448;-63
2022/12/26 15:20:16;;;;;;;12.80;2.22;;;5.90;99.90;;;;;;5118135;27;20051;-64
2022/12/26 15:23:12;;;;;;;12.52;2.60;;;5.80;99.90;;;;;;5096117;28;20495;-65
2022/12/26 15:26:09;;;;;;;11.93;3.38;;;5.70;99.90;;;;;;5115246;27;20044;-65